メインページ
METAR-TAF:

METAR-TAF

空港 :

キト, エクアドル

マリスカル・スクレ国際空港

緯度: 0-06-48S, 経度: 78-21-31W, 海抜: 2400m

現時点の気象観測

当レポートは58分前の23:41(UTC)に作成
の風 4kt
気温 13°C
湿度 94%
気圧 1026 hPa
視程: 8000m
高度900ftの雲はほとんどない
高度2000ftの曇り
小雨

METAR: SEQM 112341Z 36004KT 8000 -RA FEW009 OVC020 13/12 Q1026 NOSIG RMK A3030

時間: 19:39 (00:39 UTC)

予報

当レポートは2時間9分前の22:30(UTC)に作成
予報は12日の 00時(UTC)から 12日の 24時(UTC)まで有効
北/北東の風 4kt
視程10km以上
高度700ftの雲は散在している
高度2000ftの千切れ雲あり
12日の 0600時(UTC)から
の風 kt
視程: 5000m
高度500ftの雲は散在している
高度2000ftの千切れ雲あり
散在霧
12日の 1300時(UTC)から
変向風 3kt
視程10km以上
高度3000ftの雲は散在している
高度9000ftの雲は散在している
12日の 1800時(UTC)から
の風 12kt
視程10km以上
高度3000ftの千切れ雲あり
高度10000ftの雲は散在している
12日の 21時(UTC)から 12日の 24時(UTC)まで一時的に
にわか雨

TAF: SEQM 112230Z 1200/1224 03004KT 9999 SCT007 BKN020 FM120600 00000KT 5000 BCFG SCT005 BKN020 FM121300 VRB03KT 9999 SCT030 SCT090 FM121800 36012KT 9999 BKN030 SCT100 TEMPO 1221/1224 SHRA TX22/1219Z TN11/1211Z

4,000以上の空港の気象観測と天気予報(METAR報とTAF報)

利用可能な観測所は地図上に黄色い丸と赤い丸で示す。

丸の上にカーソルを重ねると観測所名を参照できる。

次にクリックすると気象観測と天気予報を参照できる。

マップの切り替え:黒色「×」印の緑ボタンをクリックして拡大、「-」印の緑ボタンをクリックして縮小、緑色の三角印をクリックして隣りの地図に切り替え


METAR-TAF: